createdAt,value
2018-02-24T00:01:21.899Z,100910.52
2018-02-24T00:03:52.433Z,100903.64
2018-02-24T00:06:21.807Z,100902.75
2018-02-24T00:08:51.588Z,100903.67
2018-02-24T00:11:20.817Z,100899.77
2018-02-24T00:13:50.051Z,100899.32
2018-02-24T00:16:20.283Z,100899.72
2018-02-24T00:18:49.650Z,100903.63
2018-02-24T00:21:18.951Z,100901.92
2018-02-24T00:23:48.872Z,100910.14
2018-02-24T00:26:18.136Z,100904.05
2018-02-24T00:28:47.355Z,100907.10
2018-02-24T00:31:17.043Z,100910.10
2018-02-24T00:33:46.279Z,100911.45
2018-02-24T00:36:15.476Z,100917.11
2018-02-24T00:38:44.663Z,100920.17
2018-02-24T00:41:13.940Z,100916.72
2018-02-24T00:43:44.342Z,100922.77
2018-02-24T00:46:13.664Z,100923.19
2018-02-24T00:48:42.999Z,100929.69
2018-02-24T00:51:12.709Z,100928.43
2018-02-24T00:53:42.042Z,100924.52
2018-02-24T00:56:11.842Z,100929.72
2018-02-24T00:58:41.610Z,100933.18
2018-02-24T01:01:10.841Z,100931.05
2018-02-24T01:03:40.058Z,100926.35
2018-02-24T01:06:09.715Z,100941.87
2018-02-24T01:08:39.276Z,100938.02
2018-02-24T01:11:08.494Z,100941.48
2018-02-24T01:13:38.811Z,100941.92
2018-02-24T01:16:08.055Z,100941.03
2018-02-24T01:18:37.257Z,100947.52
2018-02-24T01:21:09.436Z,100944.08
2018-02-24T01:23:38.758Z,100944.11
2018-02-24T01:26:07.990Z,100943.22
2018-02-24T01:28:37.313Z,100955.32
2018-02-24T01:31:06.530Z,100959.20
2018-02-24T01:33:36.085Z,100958.36
2018-02-24T01:36:05.873Z,100959.23
2018-02-24T01:38:35.074Z,100956.23
2018-02-24T01:41:05.058Z,100956.67
2018-02-24T01:43:34.757Z,100955.84
2018-02-24T01:46:05.570Z,100955.83
2018-02-24T01:48:35.226Z,100953.70
2018-02-24T01:51:04.523Z,100948.98
2018-02-24T01:53:33.745Z,100940.82
2018-02-24T01:56:04.614Z,100952.44
2018-02-24T01:58:33.862Z,100947.69
2018-02-24T02:01:03.382Z,100946.42
2018-02-24T02:03:33.345Z,100946.85
2018-02-24T02:06:03.657Z,100942.96
2018-02-24T02:08:32.891Z,100936.50
2018-02-24T02:11:02.777Z,100942.98
2018-02-24T02:13:32.047Z,100945.99
2018-02-24T02:16:01.538Z,100957.62
2018-02-24T02:18:31.284Z,100952.92
2018-02-24T02:21:01.134Z,100948.16
2018-02-24T02:23:30.481Z,100940.88
2018-02-24T02:26:00.254Z,100957.66
2018-02-24T02:28:29.990Z,100952.92
2018-02-24T02:30:59.510Z,100941.31
2018-02-24T02:33:29.295Z,100942.60
2018-02-24T02:35:58.569Z,100942.16
2018-02-24T02:38:27.939Z,100936.57
2018-02-24T02:43:32.978Z,100934.42
2018-02-24T02:46:03.193Z,100929.25
2018-02-24T02:48:33.431Z,100933.13
2018-02-24T02:51:03.036Z,100930.98
2018-02-24T02:53:32.261Z,100927.98
2018-02-24T02:56:04.023Z,100926.27
2018-02-24T02:58:33.478Z,100924.54
2018-02-24T03:01:03.289Z,100925.83
2018-02-24T03:03:34.146Z,100929.73
2018-02-24T03:08:36.317Z,100928.46
2018-02-24T03:11:06.225Z,100935.34
2018-02-24T03:13:35.452Z,100932.34
2018-02-24T03:16:05.510Z,100932.76
2018-02-24T03:18:35.071Z,100931.91
2018-02-24T03:21:05.002Z,100934.91
2018-02-24T03:23:34.464Z,100935.80
2018-02-24T03:26:05.472Z,100941.83
2018-02-24T03:28:34.795Z,100945.27
2018-02-24T03:31:04.023Z,100954.28
2018-02-24T03:33:33.726Z,100954.71
2018-02-24T03:36:04.551Z,100960.75
2018-02-24T03:38:33.870Z,100966.76
2018-02-24T03:41:03.605Z,100966.75
2018-02-24T03:43:32.825Z,100969.75
2018-02-24T03:46:03.004Z,100972.36
2018-02-24T03:48:32.784Z,100971.92
2018-02-24T03:51:01.993Z,100972.78
2018-02-24T03:53:31.335Z,100968.91
2018-02-24T03:56:01.010Z,100967.20
2018-02-24T03:58:30.962Z,100968.47
2018-02-24T04:01:00.145Z,100969.34
2018-02-24T04:03:29.924Z,100964.60
2018-02-24T04:05:59.278Z,100966.78
2018-02-24T04:08:28.494Z,100965.47
2018-02-24T04:10:58.124Z,100962.47
2018-02-24T04:13:27.325Z,100955.58
2018-02-24T04:15:56.568Z,100956.45
2018-02-24T04:18:26.211Z,100961.18
2018-02-24T04:20:55.415Z,100966.77
2018-02-24T04:23:24.629Z,100968.48
2018-02-24T04:25:54.243Z,100965.89
2018-02-24T04:28:23.457Z,100969.32
2018-02-24T04:30:52.685Z,100971.91
2018-02-24T04:33:23.367Z,100973.63
2018-02-24T04:35:52.572Z,100979.20
2018-02-24T04:38:21.790Z,100979.62
2018-02-24T04:40:56.624Z,100983.94
2018-02-24T04:43:26.055Z,100988.67
2018-02-24T04:45:55.342Z,100986.94
2018-02-24T04:48:25.039Z,100992.11
2018-02-24T04:50:54.273Z,100991.69
2018-02-24T04:53:23.513Z,100994.67
2018-02-24T04:55:53.131Z,100997.28
2018-02-24T04:58:22.345Z,100995.56
2018-02-24T05:00:51.617Z,100989.11
2018-02-24T05:03:21.262Z,100990.84
2018-02-24T05:05:50.492Z,100986.52
2018-02-24T05:08:20.045Z,100979.66
2018-02-24T05:10:49.623Z,100989.95
2018-02-24T05:13:18.893Z,100993.81
2018-02-24T05:15:48.217Z,101001.97
2018-02-24T05:18:17.954Z,101001.54
2018-02-24T05:20:47.195Z,101010.56
2018-02-24T05:23:16.436Z,101008.41
2018-02-24T05:25:46.209Z,101001.10
2018-02-24T05:28:15.428Z,101007.56
2018-02-24T05:30:44.677Z,101006.26
2018-02-24T05:33:14.313Z,101007.52
2018-02-24T05:35:43.544Z,101007.95
2018-02-24T05:38:12.811Z,101012.67
2018-02-24T05:40:42.415Z,101014.38
2018-02-24T05:44:42.390Z,101014.83
2018-02-24T05:47:13.313Z,101019.14
2018-02-24T05:49:42.582Z,101024.72
2018-02-24T05:52:11.803Z,101026.86
2018-02-24T05:54:41.049Z,101032.44
2018-02-24T05:57:10.291Z,101038.03
2018-02-24T05:59:40.393Z,101035.02
2018-02-24T06:02:09.630Z,101031.14
2018-02-24T06:04:38.890Z,101036.33
2018-02-24T06:07:08.134Z,101043.63
2018-02-24T06:09:37.380Z,101040.59
2018-02-24T06:12:07.080Z,101047.89
2018-02-24T06:14:36.280Z,101052.59
2018-02-24T06:17:05.843Z,101050.91
2018-02-24T06:19:35.583Z,101049.19
2018-02-24T06:22:05.323Z,101054.72
2018-02-24T06:24:34.586Z,101057.77
2018-02-24T06:27:06.417Z,101063.75
2018-02-24T06:29:35.906Z,101076.66
2018-02-24T06:32:05.912Z,101080.48
2018-02-24T06:34:35.591Z,101083.93
2018-02-24T06:37:05.038Z,101086.53
2018-02-24T06:39:34.868Z,101088.72
2018-02-24T06:42:05.830Z,101089.56
2018-02-24T06:44:36.306Z,101101.17
2018-02-24T06:47:06.768Z,101104.61
2018-02-24T06:49:38.419Z,101105.44
2018-02-24T06:52:09.177Z,101107.62
2018-02-24T06:54:39.078Z,101110.59
2018-02-24T06:57:08.845Z,101107.61
2018-02-24T06:59:38.136Z,101106.78
2018-02-24T07:02:07.378Z,101112.84
2018-02-24T07:04:39.069Z,101118.44
2018-02-24T07:07:08.424Z,101115.91
2018-02-24T07:09:37.733Z,101120.20
2018-02-24T07:12:11.512Z,101111.19
2018-02-24T07:14:41.999Z,101117.61
2018-02-24T07:17:11.396Z,101118.92
2018-02-24T07:19:41.161Z,101116.34
2018-02-24T07:22:10.455Z,101112.09
2018-02-24T07:24:39.909Z,101115.08
2018-02-24T07:27:09.542Z,101115.09
2018-02-24T07:29:38.838Z,101119.87
2018-02-24T07:32:08.066Z,101117.73
2018-02-24T07:34:38.163Z,101122.87
2018-02-24T07:37:07.519Z,101115.11
2018-02-24T07:39:36.802Z,101117.28
2018-02-24T07:42:06.488Z,101127.64
2018-02-24T07:44:35.748Z,101127.23
2018-02-24T07:47:05.274Z,101128.95
2018-02-24T07:49:34.859Z,101135.42
2018-02-24T07:52:05.201Z,101137.61
2018-02-24T07:54:34.603Z,101135.85
2018-02-24T07:57:04.248Z,101129.05
2018-02-24T07:59:33.512Z,101121.37
2018-02-24T08:02:04.732Z,101112.78
2018-02-24T08:04:34.381Z,101116.20
2018-02-24T08:07:05.058Z,101114.47
2018-02-24T08:09:34.341Z,101111.48
2018-02-24T08:12:05.672Z,101109.53
2018-02-24T08:14:34.950Z,101112.56
2018-02-24T08:17:05.472Z,101117.73
2018-02-24T08:19:35.624Z,101114.32
2018-02-24T08:22:05.613Z,101118.30
2018-02-24T08:24:34.972Z,101115.05
2018-02-24T08:27:05.615Z,101118.00
2018-02-24T08:29:34.795Z,101114.05
2018-02-24T08:32:04.731Z,101118.05
2018-02-24T08:34:34.443Z,101108.73
2018-02-24T08:37:03.935Z,101103.08
2018-02-24T08:39:33.242Z,101096.30
2018-02-24T08:42:04.942Z,101109.41
2018-02-24T08:44:34.224Z,101107.97
2018-02-24T08:47:03.736Z,101108.23
2018-02-24T08:49:33.397Z,101112.02
2018-02-24T08:52:04.867Z,101113.07
2018-02-24T08:54:34.471Z,101103.92
2018-02-24T08:57:04.263Z,101099.64
2018-02-24T08:59:33.520Z,101108.06
2018-02-24T09:02:03.949Z,101100.09
2018-02-24T09:04:33.568Z,101110.57
2018-02-24T09:07:03.041Z,101104.48
2018-02-24T09:09:32.291Z,101095.22
2018-02-24T09:12:02.966Z,101097.17
2018-02-24T09:14:32.382Z,101097.53
2018-02-24T09:17:02.372Z,101095.23
2018-02-24T09:19:32.176Z,101099.28
2018-02-24T09:22:02.042Z,101098.05
2018-02-24T09:24:31.521Z,101101.95
2018-02-24T09:27:01.231Z,101096.83
2018-02-24T09:29:30.812Z,101093.35
2018-02-24T09:32:00.104Z,101096.83
2018-02-24T09:34:29.929Z,101093.30
2018-02-24T09:36:59.180Z,101079.05
2018-02-24T09:39:28.663Z,101080.07
2018-02-24T09:41:58.197Z,101076.20
2018-02-24T09:44:27.737Z,101073.95
2018-02-24T09:46:57.020Z,101076.05
2018-02-24T09:49:26.642Z,101075.13
2018-02-24T09:51:55.869Z,101066.89
2018-02-24T09:54:25.090Z,101072.23
2018-02-24T09:56:54.692Z,101065.07
2018-02-24T09:59:23.960Z,101071.69
2018-02-24T10:01:53.247Z,101071.74
2018-02-24T10:04:23.034Z,101063.36
2018-02-24T10:06:52.474Z,101058.97
2018-02-24T10:09:21.821Z,101059.10
2018-02-24T10:11:51.586Z,101066.97
2018-02-24T10:14:20.861Z,101071.02
2018-02-24T10:16:50.123Z,101061.56
2018-02-24T10:19:19.690Z,101060.53
2018-02-24T10:21:49.614Z,101060.65
2018-02-24T10:26:55.713Z,101059.19
2018-02-24T10:29:25.043Z,101055.97
2018-02-24T10:31:54.531Z,101061.33
2018-02-24T10:34:24.165Z,101064.14
2018-02-24T10:36:53.498Z,101066.55
2018-02-24T10:39:22.765Z,101056.64
2018-02-24T10:41:52.434Z,101061.82
2018-02-24T10:44:21.776Z,101048.79
2018-02-24T10:46:51.056Z,101055.09
2018-02-24T10:49:20.690Z,101044.70
2018-02-24T10:51:49.934Z,101043.27
2018-02-24T10:54:19.198Z,101032.06
2018-02-24T10:56:48.990Z,101042.05
2018-02-24T10:59:18.285Z,101041.27
2018-02-24T11:01:47.764Z,101037.08
2018-02-24T11:04:17.483Z,101033.71
2018-02-24T11:06:46.714Z,101024.69
2018-02-24T11:09:15.926Z,101028.31
2018-02-24T11:11:45.470Z,101021.02
2018-02-24T11:14:14.731Z,101014.69
2018-02-24T11:16:44.011Z,101019.07
2018-02-24T11:19:13.584Z,101017.23
2018-02-24T11:21:42.837Z,101016.62
2018-02-24T11:24:12.123Z,101011.24
2018-02-24T11:26:42.726Z,100991.75
2018-02-24T11:29:12.000Z,101002.56
2018-02-24T11:31:41.276Z,100992.91
2018-02-24T11:34:12.085Z,100991.19
2018-02-24T11:36:41.302Z,100995.58
2018-02-24T11:39:10.512Z,100982.20
2018-02-24T11:41:40.578Z,100995.16
2018-02-24T11:44:09.842Z,100992.97
2018-02-24T11:46:39.064Z,100988.91
2018-02-24T11:49:08.314Z,100986.16
2018-02-24T11:51:37.564Z,100978.87
2018-02-24T11:54:08.170Z,100980.40
2018-02-24T11:56:37.459Z,100971.53
2018-02-24T11:59:06.708Z,100972.27
2018-02-24T12:01:36.404Z,100966.42
2018-02-24T12:04:06.636Z,100962.37
2018-02-24T12:06:36.649Z,100969.03
2018-02-24T12:09:06.405Z,100963.11
2018-02-24T12:11:35.754Z,100963.81
2018-02-24T12:14:05.836Z,100968.02
2018-02-24T12:16:35.390Z,100962.95
2018-02-24T12:19:04.631Z,100959.42
2018-02-24T12:21:33.837Z,100967.26
2018-02-24T12:24:04.574Z,100957.38
2018-02-24T12:26:34.188Z,100949.28
2018-02-24T12:29:04.033Z,100948.66
2018-02-24T12:31:33.344Z,100960.34
2018-02-24T12:34:04.565Z,100950.22
2018-02-24T12:36:34.257Z,100949.03
2018-02-24T12:39:03.662Z,100946.98
2018-02-24T12:41:32.903Z,100953.70
2018-02-24T12:44:03.005Z,100944.60
2018-02-24T12:46:32.301Z,100935.83
2018-02-24T12:49:01.761Z,100933.91
2018-02-24T12:51:31.589Z,100928.28
2018-02-24T12:54:00.854Z,100939.14
2018-02-24T12:56:30.217Z,100927.76
2018-02-24T12:58:59.876Z,100928.02
2018-02-24T13:01:29.216Z,100929.69
2018-02-24T13:03:58.424Z,100926.00
2018-02-24T13:06:28.005Z,100911.28
2018-02-24T13:08:57.226Z,100934.33
2018-02-24T13:11:26.441Z,100922.02
2018-02-24T13:13:55.708Z,100931.75
2018-02-24T13:16:24.899Z,100921.78
2018-02-24T13:18:55.619Z,100933.89
2018-02-24T13:21:24.922Z,100922.07
2018-02-24T13:23:54.171Z,100925.08
2018-02-24T13:26:23.840Z,100924.91
2018-02-24T13:28:53.053Z,100926.42
2018-02-24T13:31:22.467Z,100927.31
2018-02-24T13:33:53.197Z,100924.11
2018-02-24T13:36:22.587Z,100925.94
2018-02-24T13:38:51.966Z,100919.77
2018-02-24T13:41:21.734Z,100919.36
2018-02-24T13:43:51.638Z,100921.61
2018-02-24T13:46:20.839Z,100919.95
2018-02-24T13:48:51.528Z,100924.41
2018-02-24T13:51:20.841Z,100924.06
2018-02-24T13:53:50.063Z,100924.94
2018-02-24T13:56:19.346Z,100920.81
2018-02-24T13:58:49.099Z,100930.33
2018-02-24T14:03:47.453Z,100935.06
2018-02-24T14:06:16.992Z,100938.13
2018-02-24T14:08:46.806Z,100940.55
2018-02-24T14:11:16.221Z,100940.89
2018-02-24T14:16:27.458Z,100940.23
2018-02-24T14:18:57.119Z,100943.73
2018-02-24T14:21:26.415Z,100930.18
2018-02-24T14:23:56.758Z,100936.64
2018-02-24T14:26:26.033Z,100952.64
2018-02-24T14:28:55.365Z,100944.94
2018-02-24T14:31:25.058Z,100949.91
2018-02-24T14:33:55.038Z,100949.00
2018-02-24T14:36:24.399Z,100954.20
2018-02-24T14:38:54.765Z,100951.91
2018-02-24T14:41:24.053Z,100953.84
2018-02-24T14:43:53.602Z,100952.00
2018-02-24T14:46:23.667Z,100959.51
2018-02-24T14:48:52.906Z,100956.58
2018-02-24T14:51:22.162Z,100968.79
2018-02-24T14:53:51.773Z,100971.89
2018-02-24T14:56:21.032Z,100985.05
2018-02-24T14:58:50.302Z,100970.86
2018-02-24T15:01:19.894Z,100977.59
2018-02-24T15:03:49.180Z,100977.35
2018-02-24T15:06:18.530Z,100972.63
2018-02-24T15:08:48.778Z,100977.42
2018-02-24T15:11:18.061Z,100982.72
2018-02-24T15:13:49.156Z,100978.48
2018-02-24T15:16:19.525Z,100982.95
2018-02-24T15:18:49.112Z,100987.09
2018-02-24T15:21:19.193Z,100984.97
2018-02-24T15:23:49.350Z,100989.13
2018-02-24T15:26:19.052Z,100993.63
2018-02-24T15:28:48.848Z,100998.67
2018-02-24T15:31:19.068Z,100999.34
2018-02-24T15:33:48.725Z,101005.41
2018-02-24T15:36:18.064Z,101003.17
2018-02-24T15:38:47.740Z,101007.19
2018-02-24T15:41:17.360Z,101006.58
2018-02-24T15:43:47.509Z,101014.20
2018-02-24T15:46:17.790Z,101011.52
2018-02-24T15:48:47.343Z,101008.48
2018-02-24T15:51:17.297Z,101009.06
2018-02-24T15:53:47.179Z,101004.88
2018-02-24T15:56:17.058Z,101014.64
2018-02-24T15:58:46.709Z,101015.70
2018-02-24T16:01:16.369Z,101020.11
2018-02-24T16:03:45.585Z,101021.23
2018-02-24T16:06:14.818Z,101027.61
2018-02-24T16:08:44.666Z,101038.24
2018-02-24T16:11:13.926Z,101046.48
2018-02-24T16:13:43.513Z,101041.72
2018-02-24T16:16:13.791Z,101052.60
2018-02-24T16:18:43.488Z,101062.25
2018-02-24T16:21:13.267Z,101072.84
2018-02-24T16:23:42.990Z,101067.30
2018-02-24T16:26:12.187Z,101079.36
2018-02-24T16:28:41.366Z,101085.95
2018-02-24T16:31:11.126Z,101084.91
2018-02-24T16:33:40.999Z,101091.34
2018-02-24T16:36:10.215Z,101094.63
2018-02-24T16:38:39.920Z,101092.23
2018-02-24T16:41:09.180Z,101101.23
2018-02-24T16:43:38.459Z,101111.41
2018-02-24T16:46:07.702Z,101120.16
2018-02-24T16:48:36.944Z,101119.16
2018-02-24T16:51:06.783Z,101122.47
2018-02-24T16:53:36.006Z,101125.13
2018-02-24T16:56:06.148Z,101129.84
2018-02-24T16:58:35.881Z,101133.31
2018-02-24T17:01:05.283Z,101133.62
2018-02-24T17:03:34.525Z,101137.06
2018-02-24T17:06:04.960Z,101138.55
2018-02-24T17:08:34.216Z,101141.63
2018-02-24T17:11:03.446Z,101140.64
2018-02-24T17:13:33.321Z,101149.05
2018-02-24T17:16:04.627Z,101149.25
2018-02-24T17:18:33.894Z,101146.84
2018-02-24T17:21:04.040Z,101159.59
2018-02-24T17:23:33.489Z,101159.00
2018-02-24T17:26:03.622Z,101163.67
2018-02-24T17:28:33.287Z,101172.83
2018-02-24T17:31:02.555Z,101170.23
2018-02-24T17:33:31.915Z,101179.39
2018-02-24T17:36:01.604Z,101179.42
2018-02-24T17:38:31.587Z,101183.35
2018-02-24T17:41:00.815Z,101185.20
2018-02-24T17:43:30.826Z,101192.63
2018-02-24T17:46:00.276Z,101198.22
2018-02-24T17:48:29.878Z,101202.09
2018-02-24T17:51:01.849Z,101202.98
2018-02-24T17:53:32.552Z,101198.80
2018-02-24T17:56:02.688Z,101196.19
2018-02-24T17:58:32.200Z,101205.14
2018-02-24T18:01:01.971Z,101209.06
2018-02-24T18:03:33.823Z,101205.67
2018-02-24T18:06:04.365Z,101207.07
2018-02-24T18:08:33.728Z,101209.23
2018-02-24T18:11:03.560Z,101208.67
2018-02-24T18:13:33.166Z,101210.88
2018-02-24T18:16:04.525Z,101207.91
2018-02-24T18:18:34.552Z,101215.72
2018-02-24T18:21:04.200Z,101217.09
2018-02-24T18:23:33.448Z,101211.49
2018-02-24T18:26:05.887Z,101216.78
2018-02-24T18:28:35.270Z,101221.55
2018-02-24T18:31:04.689Z,101229.86
2018-02-24T18:33:36.331Z,101233.77
2018-02-24T18:36:06.717Z,101237.72
2018-02-24T18:38:35.961Z,101233.05
2018-02-24T18:41:05.744Z,101233.48
2018-02-24T18:43:34.940Z,101241.65
2018-02-24T18:46:05.114Z,101242.95
2018-02-24T18:48:35.214Z,101245.09
2018-02-24T18:51:04.741Z,101239.55
2018-02-24T18:53:33.947Z,101244.71
2018-02-24T18:56:05.051Z,101250.75
2018-02-24T18:58:34.254Z,101255.05
2018-02-24T19:01:03.955Z,101257.67
2018-02-24T19:03:33.756Z,101256.38
2018-02-24T19:06:04.534Z,101252.89
2018-02-24T19:08:34.901Z,101267.22
2018-02-24T19:11:04.718Z,101263.41
2018-02-24T19:13:34.089Z,101260.80
2018-02-24T19:16:04.497Z,101265.56
2018-02-24T19:18:34.583Z,101267.71
2018-02-24T19:21:04.228Z,101263.44
2018-02-24T19:23:33.494Z,101273.76
2018-02-24T19:26:03.859Z,101265.68
2018-02-24T19:28:33.057Z,101273.04
2018-02-24T19:31:02.545Z,101279.09
2018-02-24T19:33:32.247Z,101281.27
2018-02-24T19:36:03.278Z,101276.52
2018-02-24T19:38:33.379Z,101275.21
2018-02-24T19:41:03.042Z,101277.48
2018-02-24T19:43:32.538Z,101280.03
2018-02-24T19:46:02.889Z,101283.89
2018-02-24T19:48:32.706Z,101281.70
2018-02-24T19:51:02.490Z,101283.84
2018-02-24T19:53:31.868Z,101288.19
2018-02-24T19:56:02.333Z,101287.31
2018-02-24T19:58:31.954Z,101282.62
2018-02-24T20:01:01.399Z,101299.08
2018-02-24T20:03:31.244Z,101291.74
2018-02-24T20:06:00.511Z,101293.53
2018-02-24T20:08:29.918Z,101301.26
2018-02-24T20:11:00.440Z,101298.64
2018-02-24T20:13:29.779Z,101300.83
2018-02-24T20:15:59.007Z,101311.67
2018-02-24T20:18:28.726Z,101305.64
2018-02-24T20:20:57.940Z,101301.78
2018-02-24T20:23:27.174Z,101304.41
2018-02-24T20:25:56.812Z,101305.30
2018-02-24T20:28:26.266Z,101314.81
2018-02-24T20:30:55.912Z,101319.98
2018-02-24T20:33:25.529Z,101321.72
2018-02-24T20:35:54.746Z,101330.80
2018-02-24T20:38:24.032Z,101323.86
2018-02-24T20:40:54.065Z,101323.02
2018-02-24T20:43:23.394Z,101333.45
2018-02-24T20:45:52.771Z,101331.30
2018-02-24T20:48:22.618Z,101337.35
2018-02-24T20:50:51.841Z,101335.66
2018-02-24T20:53:21.099Z,101340.80
2018-02-24T20:55:50.848Z,101343.87
2018-02-24T20:58:20.161Z,101346.44
2018-02-24T21:00:49.471Z,101346.43
2018-02-24T21:03:19.216Z,101352.48
2018-02-24T21:05:48.449Z,101354.69
2018-02-24T21:08:17.674Z,101356.00
2018-02-24T21:10:47.283Z,101353.84
2018-02-24T21:13:16.518Z,101357.73
2018-02-24T21:15:46.190Z,101355.98
2018-02-24T21:18:15.993Z,101355.56
2018-02-24T21:20:45.263Z,101362.91
2018-02-24T21:23:14.491Z,101354.30
2018-02-24T21:25:44.314Z,101360.34
2018-02-24T21:28:13.550Z,101360.33
2018-02-24T21:30:42.912Z,101367.24
2018-02-24T21:33:12.617Z,101356.02
2018-02-24T21:35:41.928Z,101363.37
2018-02-24T21:38:11.110Z,101364.67
2018-02-24T21:40:41.197Z,101370.70
2018-02-24T21:43:11.183Z,101365.11
2018-02-24T21:45:41.219Z,101375.89
2018-02-24T21:48:10.755Z,101375.88
2018-02-24T21:50:40.090Z,101379.77
2018-02-24T21:53:09.391Z,101387.11
2018-02-24T21:55:40.092Z,101390.12
2018-02-24T21:58:09.285Z,101393.98
2018-02-24T22:00:38.631Z,101382.77
2018-02-24T22:03:10.286Z,101383.64
2018-02-24T22:05:39.780Z,101387.52
2018-02-24T22:08:09.005Z,101392.67
2018-02-24T22:10:38.800Z,101400.02
2018-02-24T22:13:08.057Z,101404.27
2018-02-24T22:15:37.525Z,101409.89
2018-02-24T22:18:07.211Z,101408.59
2018-02-24T22:20:36.468Z,101409.91
2018-02-24T22:23:05.719Z,101412.91
2018-02-24T22:25:35.378Z,101415.49
2018-02-24T22:28:05.321Z,101418.95
2018-02-24T22:30:34.662Z,101416.34
2018-02-24T22:33:04.506Z,101420.69
2018-02-24T22:35:33.684Z,101426.67
2018-02-24T22:38:04.392Z,101428.39
2018-02-24T22:40:35.388Z,101422.75
2018-02-24T22:43:04.852Z,101424.88
2018-02-24T22:45:34.070Z,101425.34
2018-02-24T22:48:08.461Z,101420.11
2018-02-24T22:50:37.983Z,101421.44
2018-02-24T22:53:07.155Z,101421.43
2018-02-24T22:55:36.801Z,101421.47
2018-02-24T22:58:05.991Z,101420.13
2018-02-24T23:00:35.200Z,101421.41
2018-02-24T23:03:04.660Z,101430.42
2018-02-24T23:05:33.871Z,101423.95
2018-02-24T23:08:04.094Z,101431.70
2018-02-24T23:10:34.190Z,101425.68
2018-02-24T23:13:04.030Z,101426.13
2018-02-24T23:15:34.792Z,101435.14
2018-02-24T23:18:06.141Z,101435.10
2018-02-24T23:20:35.386Z,101426.09
2018-02-24T23:23:05.142Z,101429.05
2018-02-24T23:25:34.488Z,101439.87
2018-02-24T23:28:04.687Z,101434.27
2018-02-24T23:30:36.675Z,101441.56
2018-02-24T23:33:05.981Z,101443.70
2018-02-24T23:35:35.343Z,101441.92
2018-02-24T23:38:06.597Z,101438.44
2018-02-24T23:40:35.920Z,101443.10
2018-02-24T23:43:05.202Z,101445.70
2018-02-24T23:45:34.779Z,101451.28
2018-02-24T23:48:04.843Z,101448.23
2018-02-24T23:50:34.270Z,101449.95
2018-02-24T23:53:04.308Z,101459.02
2018-02-24T23:55:34.500Z,101464.63
2018-02-24T23:58:05.952Z,101468.42
